createdAt,value
2023-05-19T00:04:40.157Z,2.80
2023-05-19T00:10:02.701Z,3.20
2023-05-19T00:15:24.441Z,3.20
2023-05-19T00:20:47.820Z,3.80
2023-05-19T00:26:10.019Z,4.80
2023-05-19T00:31:36.751Z,4.90
2023-05-19T00:37:00.682Z,5.50
2023-05-19T00:42:22.413Z,6.90
2023-05-19T00:47:44.407Z,6.70
2023-05-19T00:53:06.034Z,5.50
2023-05-19T00:58:31.551Z,5.50
2023-05-19T01:03:53.722Z,4.20
2023-05-19T01:09:16.767Z,3.70
2023-05-19T01:14:38.473Z,3.90
2023-05-19T01:20:22.089Z,4.00
2023-05-19T01:25:55.663Z,3.20
2023-05-19T01:31:18.748Z,3.80
2023-05-19T01:36:42.109Z,4.60
2023-05-19T01:42:04.596Z,5.10
2023-05-19T01:47:26.537Z,4.20
2023-05-19T01:52:48.604Z,3.80
2023-05-19T01:58:41.686Z,3.60
2023-05-19T02:04:18.702Z,3.40
2023-05-19T02:09:56.306Z,3.50
2023-05-19T02:15:21.904Z,3.60
2023-05-19T02:20:43.722Z,3.90
2023-05-19T02:26:05.533Z,3.90
2023-05-19T02:31:31.910Z,3.40
2023-05-19T02:36:53.993Z,3.60
2023-05-19T02:42:18.257Z,5.40
2023-05-19T02:47:41.687Z,6.10
2023-05-19T02:53:04.430Z,5.20
2023-05-19T02:58:26.013Z,4.40
2023-05-19T03:03:47.649Z,4.00
2023-05-19T03:09:10.679Z,4.20
2023-05-19T03:14:34.086Z,4.30
2023-05-19T03:19:55.925Z,4.20
2023-05-19T03:25:17.682Z,4.50
2023-05-19T03:30:39.531Z,3.80
2023-05-19T03:36:08.810Z,3.40
2023-05-19T03:41:33.059Z,3.60
2023-05-19T03:46:56.053Z,3.80
2023-05-19T03:52:38.709Z,3.90
2023-05-19T03:58:14.690Z,3.50
2023-05-19T04:03:36.409Z,3.90
2023-05-19T04:08:58.142Z,3.80
2023-05-19T04:14:20.474Z,3.70
2023-05-19T04:19:42.226Z,4.10
2023-05-19T04:25:05.169Z,3.90
2023-05-19T04:30:28.703Z,4.30
2023-05-19T04:35:51.816Z,4.00
2023-05-19T04:41:13.987Z,4.90
2023-05-19T04:46:36.227Z,4.70
2023-05-19T04:51:58.648Z,4.80
2023-05-19T04:57:22.934Z,5.10
2023-05-19T05:02:45.476Z,4.80
2023-05-19T05:08:07.817Z,4.60
2023-05-19T05:13:33.169Z,5.00
2023-05-19T05:18:56.128Z,7.40
2023-05-19T05:24:18.520Z,5.20
2023-05-19T05:29:44.803Z,5.60
2023-05-19T05:35:07.468Z,4.80
2023-05-19T05:40:30.114Z,5.10
2023-05-19T05:45:52.569Z,5.50
2023-05-19T05:51:15.587Z,6.60
2023-05-19T05:56:37.514Z,7.10
2023-05-19T06:02:01.070Z,6.20
2023-05-19T06:07:24.583Z,7.10
2023-05-19T06:12:46.514Z,8.30
2023-05-19T06:18:09.004Z,7.80
2023-05-19T06:23:31.281Z,8.30
2023-05-19T06:28:53.483Z,8.50
2023-05-19T06:34:17.790Z,8.40
2023-05-19T06:39:40.204Z,8.10
2023-05-19T06:45:02.145Z,8.60
2023-05-19T06:50:25.340Z,9.40
2023-05-19T06:55:58.753Z,9.50
2023-05-19T07:01:22.850Z,10.20
2023-05-19T07:06:50.386Z,10.30
2023-05-19T07:12:12.546Z,8.20
2023-05-19T07:17:34.614Z,9.30
2023-05-19T07:22:56.310Z,10.70
2023-05-19T07:28:18.278Z,10.20
2023-05-19T07:33:39.866Z,10.70
2023-05-19T07:39:01.646Z,11.00
2023-05-19T07:44:23.703Z,10.90
2023-05-19T07:49:45.749Z,11.10
2023-05-19T07:55:07.737Z,9.20
2023-05-19T08:00:29.770Z,9.30
2023-05-19T08:05:51.617Z,9.20
2023-05-19T08:11:13.424Z,9.10
2023-05-19T08:16:35.303Z,9.20
2023-05-19T08:21:57.685Z,9.00
2023-05-19T08:27:21.649Z,8.30
2023-05-19T08:32:43.592Z,8.40
2023-05-19T08:38:05.507Z,8.50
2023-05-19T08:43:30.266Z,8.50
2023-05-19T08:48:58.172Z,8.90
2023-05-19T08:54:20.944Z,9.70
2023-05-19T08:59:43.954Z,10.50
2023-05-19T09:05:06.165Z,10.40
2023-05-19T09:10:29.225Z,10.90
2023-05-19T09:15:52.938Z,11.90
2023-05-19T09:21:16.460Z,12.00
2023-05-19T09:26:42.127Z,14.40
2023-05-19T09:32:05.474Z,21.90
2023-05-19T09:37:28.054Z,24.70
2023-05-19T09:42:49.696Z,19.00
2023-05-19T09:48:11.777Z,15.60
2023-05-19T09:53:35.014Z,15.70
2023-05-19T09:58:57.369Z,17.30
2023-05-19T10:04:18.886Z,17.10
2023-05-19T10:09:41.847Z,18.90
2023-05-19T10:15:03.631Z,21.40
2023-05-19T10:20:27.039Z,19.30
2023-05-19T10:25:49.633Z,18.30
2023-05-19T10:31:13.841Z,17.90
2023-05-19T10:36:48.580Z,15.90
2023-05-19T10:42:19.741Z,14.80
2023-05-19T10:47:42.188Z,14.10
2023-05-19T10:53:03.710Z,14.30
2023-05-19T10:58:43.890Z,14.00
2023-05-19T11:04:12.389Z,11.80
2023-05-19T11:09:40.905Z,12.70
2023-05-19T11:15:03.332Z,12.70
2023-05-19T11:20:26.940Z,11.90
2023-05-19T11:25:54.007Z,13.20
2023-05-19T11:31:16.172Z,14.30
2023-05-19T11:36:40.159Z,11.10
2023-05-19T11:42:02.188Z,11.70
2023-05-19T11:47:24.090Z,11.80
2023-05-19T11:52:47.543Z,12.30
2023-05-19T11:58:09.373Z,11.60
2023-05-19T12:03:33.306Z,11.50
2023-05-19T12:08:55.570Z,11.70
2023-05-19T12:14:18.097Z,13.10
2023-05-19T12:19:41.722Z,10.30
2023-05-19T12:25:05.365Z,10.00
2023-05-19T12:30:31.966Z,10.10
2023-05-19T12:35:54.624Z,9.00
2023-05-19T12:41:17.519Z,9.40
2023-05-19T12:46:40.531Z,14.30
2023-05-19T12:52:11.903Z,17.10
2023-05-19T12:57:36.504Z,12.80
2023-05-19T13:03:06.812Z,12.00
2023-05-19T13:08:29.900Z,10.60
2023-05-19T13:13:51.949Z,11.50
2023-05-19T13:19:24.867Z,13.60
2023-05-19T13:24:48.364Z,12.60
2023-05-19T13:30:10.453Z,12.40
2023-05-19T13:35:37.659Z,14.00
2023-05-19T13:40:59.958Z,14.80
2023-05-19T13:46:29.511Z,14.80
2023-05-19T13:51:58.852Z,16.80
2023-05-19T13:57:24.501Z,14.70
2023-05-19T14:02:46.592Z,14.90
2023-05-19T14:08:09.459Z,13.40
2023-05-19T14:13:36.273Z,13.80
2023-05-19T14:19:04.312Z,28.60
2023-05-19T14:24:26.697Z,28.50
2023-05-19T14:29:49.247Z,18.20
2023-05-19T14:35:14.374Z,14.10
2023-05-19T14:40:41.461Z,14.40
2023-05-19T14:46:03.398Z,13.40
2023-05-19T14:51:28.260Z,14.10
2023-05-19T14:56:50.400Z,15.90
2023-05-19T15:02:12.830Z,14.70
2023-05-19T15:07:35.269Z,13.50
2023-05-19T15:12:57.899Z,10.10
2023-05-19T15:18:19.763Z,9.50
2023-05-19T15:23:41.441Z,9.60
2023-05-19T15:29:03.898Z,9.00
2023-05-19T15:34:26.518Z,12.30
2023-05-19T15:39:48.743Z,10.30
2023-05-19T15:45:10.544Z,8.40
2023-05-19T15:50:33.443Z,7.50
2023-05-19T15:55:57.660Z,9.40
2023-05-19T16:01:19.974Z,9.80
2023-05-19T16:06:41.907Z,10.20
2023-05-19T16:12:04.237Z,11.20
2023-05-19T16:17:28.766Z,9.70
2023-05-19T16:22:50.607Z,8.70
2023-05-19T16:28:14.849Z,8.30
2023-05-19T16:33:36.814Z,9.10
2023-05-19T16:38:59.021Z,8.00
2023-05-19T16:44:20.941Z,8.80
2023-05-19T16:49:42.499Z,11.30
2023-05-19T16:55:05.883Z,10.30
2023-05-19T17:00:29.519Z,12.00
2023-05-19T17:05:51.372Z,15.10
2023-05-19T17:11:13.904Z,10.70
2023-05-19T17:16:36.478Z,11.70
2023-05-19T17:21:58.351Z,12.50
2023-05-19T17:27:20.486Z,14.20
2023-05-19T17:32:42.363Z,18.60
2023-05-19T17:38:07.969Z,15.30
2023-05-19T17:43:30.081Z,16.70
2023-05-19T17:48:53.652Z,15.50
2023-05-19T17:54:15.957Z,16.40
2023-05-19T17:59:38.013Z,22.10
2023-05-19T18:05:01.238Z,23.60
2023-05-19T18:10:25.853Z,24.90
2023-05-19T18:15:48.177Z,20.60
2023-05-19T18:21:14.659Z,20.70
2023-05-19T18:26:42.083Z,18.70
2023-05-19T18:32:04.671Z,17.50
2023-05-19T18:37:27.335Z,17.30
2023-05-19T18:42:49.202Z,19.00
2023-05-19T18:48:11.342Z,23.80
2023-05-19T18:53:34.827Z,26.90
2023-05-19T18:58:57.591Z,30.90
2023-05-19T19:04:20.608Z,24.80
2023-05-19T19:09:43.994Z,20.00
2023-05-19T19:15:06.603Z,17.00
2023-05-19T19:20:28.791Z,17.30
2023-05-19T19:25:51.058Z,18.00
2023-05-19T19:31:12.639Z,17.00
2023-05-19T19:36:37.611Z,18.20
2023-05-19T19:41:59.783Z,17.60
2023-05-19T19:47:21.857Z,20.90
2023-05-19T19:52:46.845Z,18.90
2023-05-19T19:58:08.990Z,19.90
2023-05-19T20:03:31.949Z,19.00
2023-05-19T20:08:53.707Z,19.30
2023-05-19T20:14:18.926Z,17.60
2023-05-19T20:19:40.756Z,15.40
2023-05-19T20:25:04.163Z,15.20
2023-05-19T20:30:29.259Z,16.20
2023-05-19T20:35:51.388Z,17.80
2023-05-19T20:41:13.993Z,15.40
2023-05-19T20:46:35.770Z,16.00
2023-05-19T20:51:59.983Z,16.70
2023-05-19T20:57:26.140Z,17.10
2023-05-19T21:02:50.344Z,16.00
2023-05-19T21:08:16.893Z,16.20
2023-05-19T21:13:39.425Z,15.30
2023-05-19T21:19:02.092Z,16.80
2023-05-19T21:24:23.967Z,16.40
2023-05-19T21:29:46.190Z,19.20
2023-05-19T21:35:08.227Z,16.10
2023-05-19T21:40:30.573Z,15.20
2023-05-19T21:45:52.319Z,13.10
2023-05-19T21:51:14.226Z,15.30
2023-05-19T21:56:36.390Z,15.20
2023-05-19T22:01:58.926Z,15.30
2023-05-19T22:07:26.976Z,15.60
2023-05-19T22:12:49.119Z,14.10
2023-05-19T22:18:11.897Z,16.20
2023-05-19T22:23:33.868Z,17.60
2023-05-19T22:28:55.808Z,15.40
2023-05-19T22:34:19.924Z,17.00
2023-05-19T22:39:41.944Z,18.50
2023-05-19T22:45:03.978Z,17.10
2023-05-19T22:50:26.157Z,16.70
2023-05-19T22:55:47.709Z,16.90
2023-05-19T23:01:09.636Z,16.10
2023-05-19T23:06:31.670Z,16.20
2023-05-19T23:11:56.561Z,16.80
2023-05-19T23:17:18.076Z,16.80
2023-05-19T23:22:39.699Z,16.50
2023-05-19T23:28:01.632Z,17.50
2023-05-19T23:33:23.212Z,17.60
2023-05-19T23:38:45.155Z,18.70
2023-05-19T23:44:08.637Z,17.40
2023-05-19T23:49:30.670Z,18.50
2023-05-19T23:54:52.155Z,18.70
